aviador You're here:

MMTP Decoded Metar

TAPACHULA in MEXICO
Report Time2018-01-18 12:40:00
UTC Time2018-01-18 13:53:17
Flight Rules Old
Wind080° at 03 kt
W.Decomp.*RWY 05: 2.7 kt HW 1.4 kt RCW
W.Rank080° ranks 18
Current wind is below 080° avg. (6.9)
Visibility9999 m
Phenomena:N/A
Clouds:Broken 150 Hf
Expected CloudBase > 400 ft AGL from Temp-Dew spread
Ceiling15,000 ft
Temp19°C (ISA +4)
Dew Point18°C (94% RH)
QNH1014 hPa
Density Alt827 ft
Elevation95 ft
Report Wrong Elevation
Raw Report
METAR MMTP 181240Z 08003KT 10SM BKN150 19/18 A2994 RMK 8/030 HZY=

Extra information for MMTP:More info

Metar Taf Metar & Taf Last 4 Metars F.Rules Stats Wind Profile Meteogram Temp Stats Airport Information Weather charts Add Link Nearby VenuesMetar ALERT Operation Metar Decoded Social comments